Time;durP1;ratioP1;P1;durP2;ratioP2;P2;SDS_P1;SDS_P2;PMS_P1;PMS_P2;Temp;Humidity;BMP_temperature;BMP_pressure;BME280_temperature;BME280_humidity;BME280_pressure;Samples;Min_cycle;Max_cycle;Signal;HPM_P1;HPM_P2
2022/12/25 00:02:03;;;;;;;;;15.50;14.25;;;;;12.29;72.40;100928.25;5062391;28;45317;-55
2022/12/25 00:04:29;;;;;;;;;14.75;13.50;;;;;12.32;72.55;100922.06;5062259;28;45942;-55
2022/12/25 00:06:54;;;;;;;;;17.50;17.50;;;;;12.33;72.56;100919.38;5062247;28;45354;-55
2022/12/25 00:09:20;;;;;;;;;14.00;13.75;;;;;12.32;72.27;100915.00;5062486;27;45335;-54
2022/12/25 00:11:45;;;;;;;;;19.50;15.50;;;;;12.33;72.54;100906.22;5062147;28;45323;-55
2022/12/25 00:14:10;;;;;;;;;20.25;18.75;;;;;12.34;72.39;100907.09;5062247;28;45323;-55
2022/12/25 00:16:36;;;;;;;;;15.00;13.00;;;;;12.39;72.18;100914.91;5077756;28;45215;-54
2022/12/25 00:19:01;;;;;;;;;16.50;14.00;;;;;12.41;72.42;100918.38;5062369;28;45194;-54
2022/12/25 00:21:27;;;;;;;;;18.50;15.50;;;;;12.43;72.63;100917.44;5061820;28;45507;-55
2022/12/25 00:23:54;;;;;;;;;14.00;12.75;;;;;12.44;72.56;100910.41;5061960;28;46132;-56
2022/12/25 00:26:19;;;;;;;;;17.00;16.00;;;;;12.43;72.62;100906.06;5061965;28;45286;-55
2022/12/25 00:28:45;;;;;;;;;15.25;15.00;;;;;12.49;72.24;100916.44;5062079;28;45243;-55
2022/12/25 00:31:14;;;;;;;;;15.00;13.50;;;;;12.51;72.63;100906.75;5062004;28;45220;-55
2022/12/25 00:33:42;;;;;;;;;16.00;12.25;;;;;12.53;72.52;100907.59;5062048;28;45350;-56
2022/12/25 00:36:09;;;;;;;;;17.00;15.25;;;;;12.55;72.20;100900.50;5061709;28;45332;-54
2022/12/25 00:38:36;;;;;;;;;16.00;14.00;;;;;12.56;72.52;100896.97;5077556;28;45272;-54
2022/12/25 00:42:17;;;;;;;;;16.25;15.25;;;;;12.59;72.42;100914.50;5061692;28;45356;-55
2022/12/25 00:44:03;;;;;;;;;17.00;15.75;;;;;12.57;72.70;100913.69;5061415;27;45220;-55
2022/12/25 00:46:28;;;;;;;;;15.25;14.25;;;;;12.60;72.54;100917.13;5061696;28;45257;-55
2022/12/25 00:48:53;;;;;;;;;16.50;15.50;;;;;12.62;72.65;100917.97;5061873;28;45282;-55
2022/12/25 00:51:19;;;;;;;;;15.75;14.50;;;;;12.64;72.50;100915.28;5076954;28;45687;-56
2022/12/25 00:53:44;;;;;;;;;16.00;15.00;;;;;12.64;72.53;100916.16;5061440;27;45173;-55
2022/12/25 00:56:10;;;;;;;;;19.00;16.25;;;;;12.65;72.58;100912.63;5061802;28;45122;-55
2022/12/25 00:58:35;;;;;;;;;16.50;15.00;;;;;12.65;72.27;100903.84;5061632;28;45408;-54
2022/12/25 01:01:02;;;;;;;;;15.00;12.75;;;;;12.65;72.57;100893.28;5061551;28;45385;-55
2022/12/25 01:03:27;;;;;;;;;19.00;16.25;;;;;12.67;72.59;100902.06;5059942;28;46411;-55
2022/12/25 01:05:58;;;;;;;;;17.75;16.00;;;;;12.67;72.51;100897.63;5061197;28;45353;-55
2022/12/25 01:08:24;;;;;;;;;16.00;14.00;;;;;12.69;72.43;100894.97;5060140;28;45526;-55
2022/12/25 01:11:03;;;;;;;;;16.00;14.25;;;;;12.70;72.63;100894.06;5061409;28;45332;-54
2022/12/25 01:13:30;;;;;;;;;15.00;15.00;;;;;12.71;72.51;100897.59;5061337;28;47567;-54
2022/12/25 01:15:55;;;;;;;;;18.00;15.00;;;;;12.68;72.39;100891.47;5076733;28;45429;-55
2022/12/25 01:18:22;;;;;;;;;14.50;14.50;;;;;12.71;72.31;100887.91;5061629;28;45371;-55
2022/12/25 01:20:47;;;;;;;;;13.00;12.50;;;;;12.70;72.30;100894.06;5060851;28;45271;-55
2022/12/25 01:23:13;;;;;;;;;14.00;12.00;;;;;12.70;72.46;100885.31;5061046;28;46007;-55
2022/12/25 01:25:39;;;;;;;;;12.00;11.50;;;;;12.74;72.72;100877.31;5065575;27;45200;-55
2022/12/25 01:28:05;;;;;;;;;12.75;12.75;;;;;12.75;72.44;100875.53;5061142;28;45243;-55
2022/12/25 01:30:30;;;;;;;;;17.00;12.75;;;;;12.75;72.25;100879.00;5061261;28;45338;-55
2022/12/25 01:32:56;;;;;;;;;14.50;13.75;;;;;12.78;72.51;100892.16;5060959;28;46323;-55
2022/12/25 01:35:21;;;;;;;;;12.75;11.25;;;;;12.79;72.68;100890.38;5061065;28;45376;-55
2022/12/25 01:37:46;;;;;;;;;15.25;13.00;;;;;12.82;72.34;100898.25;5060980;28;45252;-55
2022/12/25 01:40:12;;;;;;;;;14.25;12.50;;;;;12.81;72.24;100897.34;5060838;28;46185;-55
2022/12/25 01:42:37;;;;;;;;;14.25;14.25;;;;;12.82;72.65;100893.81;5060776;28;45369;-55
2022/12/25 01:45:29;;;;;;;;;12.00;11.75;;;;;12.85;72.54;100903.44;5076336;28;45287;-55
2022/12/25 01:47:55;;;;;;;;;15.00;13.25;;;;;12.85;72.33;100919.25;5060859;27;45635;-55
2022/12/25 01:50:21;;;;;;;;;25.00;22.25;;;;;12.87;72.53;100922.75;5060494;28;45492;-55
2022/12/25 01:52:48;;;;;;;;;16.50;13.50;;;;;12.86;72.64;100926.28;5060140;28;46130;-54
2022/12/25 01:55:14;;;;;;;;;13.25;13.25;;;;;12.83;72.45;100910.53;5060579;28;45354;-55
2022/12/25 01:57:42;;;;;;;;;17.50;15.00;;;;;12.87;72.57;100917.47;5060676;28;45250;-56
2022/12/25 02:00:08;;;;;;;;;13.25;13.25;;;;;12.88;72.28;100913.03;5060360;28;45268;-54
2022/12/25 02:02:34;;;;;;;;;13.50;12.00;;;;;12.87;72.79;100908.66;5060161;27;45240;-55
2022/12/25 02:05:07;;;;;;;;;20.25;17.75;;;;;12.86;72.38;100894.63;5060349;28;45232;-56
2022/12/25 02:07:34;;;;;;;;;14.50;12.50;;;;;12.86;72.58;100891.13;5060455;28;45230;-56
2022/12/25 02:10:00;;;;;;;;;14.75;14.00;;;;;12.86;72.93;100885.84;5060121;28;45183;-56
2022/12/25 02:12:32;;;;;;;;;16.25;16.25;;;;;12.87;72.58;100888.44;5075642;28;48158;-55
2022/12/25 02:15:02;;;;;;;;;20.50;17.00;;;;;12.85;72.50;100892.88;5060173;28;45319;-56
2022/12/25 02:18:08;;;;;;;;;17.50;14.75;;;;;12.89;72.37;100898.97;5060340;28;45398;-55
2022/12/25 02:20:49;;;;;;;;;16.50;13.50;;;;;12.88;72.61;100890.19;5059879;28;45311;-56
2022/12/25 02:23:28;;;;;;;;;18.50;16.75;;;;;12.90;72.43;100891.00;5060070;28;46313;-56
2022/12/25 02:26:06;;;;;;;;;18.75;17.00;;;;;12.91;72.60;100881.34;5059861;28;45307;-56
2022/12/25 02:28:43;;;;;;;;;16.25;14.75;;;;;12.92;72.36;100883.09;5060105;28;45246;-55
2022/12/25 02:31:15;;;;;;;;;17.75;14.00;;;;;12.91;72.57;100871.66;5060155;28;45241;-56
2022/12/25 02:34:03;;;;;;;;;18.00;15.75;;;;;12.94;72.66;100883.91;5059922;28;45315;-55
2022/12/25 02:37:05;;;;;;;;;15.75;12.00;;;;;12.96;72.62;100888.25;5059875;28;45422;-55
2022/12/25 02:39:56;;;;;;;;;15.25;14.00;;;;;12.98;72.68;100878.53;5060285;28;45441;-55
2022/12/25 03:08:19;;;;;;;;;16.75;14.75;;;;;13.01;72.60;100873.19;5059434;28;45269;-55
2022/12/25 03:13:38;;;;;;;;;18.75;15.50;;;;;12.99;72.30;100853.91;5048717;28;45229;-56
2022/12/25 03:18:49;;;;;;;;;20.25;17.25;;;;;13.03;72.41;100852.06;5059544;28;45928;-56
2022/12/25 03:26:55;;;;;;;;;24.50;21.00;;;;;13.02;72.28;100837.13;5057868;28;45505;-55
2022/12/25 03:32:18;;;;;;;;;26.75;23.00;;;;;12.99;72.63;100819.63;5061417;28;45244;-55
2022/12/25 04:36:11;;;;;;;;;26.25;23.50;;;;;12.95;72.58;100746.72;5061433;28;45419;-55
2022/12/25 04:38:38;;;;;;;;;25.25;22.50;;;;;12.97;72.54;100744.06;5061693;28;45280;-56
2022/12/25 04:41:04;;;;;;;;;24.00;20.75;;;;;12.96;72.43;100737.88;5061934;28;45312;-56
2022/12/25 04:43:30;;;;;;;;;18.75;17.50;;;;;12.96;72.18;100737.88;5061538;28;45457;-55
2022/12/25 04:45:57;;;;;;;;;22.50;19.50;;;;;12.98;72.72;100736.09;5061698;28;46138;-55
2022/12/25 04:48:23;;;;;;;;;18.25;15.00;;;;;12.99;72.28;100744.88;5061834;28;45298;-56
2022/12/25 04:50:49;;;;;;;;;20.25;18.75;;;;;12.97;72.63;100747.53;5061607;28;45382;-55
2022/12/25 04:53:15;;;;;;;;;18.75;18.00;;;;;12.98;72.70;100751.91;5061402;28;45319;-56
2022/12/25 04:55:41;;;;;;;;;16.00;15.00;;;;;12.99;72.41;100758.06;5077345;28;46387;-56
2022/12/25 04:58:06;;;;;;;;;11.25;10.75;;;;;12.98;72.37;100751.91;5061413;28;45256;-56
2022/12/25 05:00:32;;;;;;;;;18.25;16.25;;;;;12.96;72.31;100753.72;5061903;28;45308;-56
2022/12/25 05:02:57;;;;;;;;;19.00;16.00;;;;;12.97;72.71;100746.69;5061452;28;45219;-55
2022/12/25 05:05:23;;;;;;;;;18.00;16.00;;;;;12.96;72.12;100745.81;5061485;28;45286;-57
2022/12/25 05:07:48;;;;;;;;;15.00;14.75;;;;;12.96;72.42;100737.88;5076919;28;45339;-55
2022/12/25 05:10:13;;;;;;;;;14.25;14.00;;;;;12.95;72.60;100715.06;5061616;28;45192;-55
2022/12/25 05:12:39;;;;;;;;;18.25;17.00;;;;;12.93;72.54;100674.69;5061330;28;45223;-56
2022/12/25 05:15:04;;;;;;;;;15.75;15.75;;;;;12.93;72.36;100664.13;5061335;28;46294;-56
2022/12/25 05:17:30;;;;;;;;;16.50;16.25;;;;;12.94;72.28;100665.88;5061417;28;45383;-55
2022/12/25 05:19:55;;;;;;;;;15.50;14.00;;;;;12.95;72.43;100666.72;5077135;28;45356;-56
2022/12/25 05:22:20;;;;;;;;;16.00;14.25;;;;;12.93;72.44;100674.69;5076594;28;45232;-55
2022/12/25 05:24:46;;;;;;;;;17.25;14.75;;;;;12.97;72.62;100702.72;5060948;28;45276;-56
2022/12/25 05:27:11;;;;;;;;;14.50;13.75;;;;;12.96;72.22;100698.31;5060985;28;45466;-56
2022/12/25 05:29:36;;;;;;;;;19.75;15.75;;;;;13.00;72.62;100697.38;5047825;28;45378;-56
2022/12/25 05:32:02;;;;;;;;;20.50;15.25;;;;;12.98;72.67;100700.91;5061031;28;45287;-56
2022/12/25 05:34:27;;;;;;;;;16.50;15.00;;;;;13.01;72.52;100698.22;5061048;28;46111;-55
2022/12/25 05:36:52;;;;;;;;;13.75;12.00;;;;;13.02;72.37;100694.69;5060884;28;45309;-55
2022/12/25 05:39:18;;;;;;;;;16.00;13.25;;;;;12.99;72.61;100692.09;5061168;28;45338;-56
2022/12/25 05:41:43;;;;;;;;;18.25;16.50;;;;;13.03;72.54;100679.72;5060845;28;45354;-56
2022/12/25 05:44:09;;;;;;;;;14.75;14.25;;;;;13.03;72.74;100685.88;5059613;28;45953;-55
2022/12/25 05:46:34;;;;;;;;;18.00;14.00;;;;;13.03;72.63;100711.38;5060991;28;45358;-55
2022/12/25 05:48:59;;;;;;;;;14.00;14.00;;;;;13.04;72.63;100724.50;5060892;28;45319;-55
2022/12/25 05:51:25;;;;;;;;;13.25;12.25;;;;;13.03;72.46;100732.47;5060392;28;45346;-56
2022/12/25 05:53:50;;;;;;;;;16.75;16.75;;;;;13.01;72.60;100728.09;5060037;28;45388;-56
2022/12/25 05:56:16;;;;;;;;;18.50;14.75;;;;;13.00;72.26;100726.38;5060721;28;45245;-55
2022/12/25 05:58:41;;;;;;;;;13.50;12.25;;;;;13.00;72.32;100709.69;5060706;28;45441;-56
2022/12/25 06:01:22;;;;;;;;;14.00;13.00;;;;;12.99;72.37;100711.47;5060625;28;45190;-56
2022/12/25 06:03:47;;;;;;;;;14.00;14.00;;;;;12.98;72.86;100707.09;5060609;28;46237;-56
2022/12/25 06:06:13;;;;;;;;;16.50;12.50;;;;;12.98;72.53;100699.16;5060274;28;45493;-55
2022/12/25 06:08:39;;;;;;;;;12.25;12.00;;;;;12.98;72.61;100703.56;5060764;28;45322;-54
2022/12/25 06:11:06;;;;;;;;;14.00;12.25;;;;;12.98;72.31;100703.56;5060285;28;45446;-55
2022/12/25 06:13:33;;;;;;;;;16.25;11.25;;;;;12.97;72.68;100689.53;5060623;28;45277;-55
2022/12/25 06:15:58;;;;;;;;;12.00;10.75;;;;;12.98;72.68;100688.63;5060773;27;45249;-55
2022/12/25 06:18:25;;;;;;;;;17.00;13.00;;;;;12.97;72.62;100686.88;5060517;28;45207;-55
2022/12/25 06:20:50;;;;;;;;;13.75;13.75;;;;;12.99;72.36;100690.34;5060107;28;45232;-55
2022/12/25 06:23:16;;;;;;;;;15.25;11.75;;;;;12.98;72.37;100688.63;5060081;28;46084;-55
2022/12/25 06:25:41;;;;;;;;;16.00;13.75;;;;;13.00;72.54;100678.91;5059937;27;45275;-55
2022/12/25 06:28:06;;;;;;;;;14.75;14.50;;;;;12.97;72.68;100671.06;5060236;28;45639;-54
2022/12/25 06:30:32;;;;;;;;;13.00;13.00;;;;;13.01;72.37;100677.13;5060109;28;45264;-54
2022/12/25 06:33:01;;;;;;;;;10.75;10.75;;;;;13.01;72.23;100674.47;5060194;28;45416;-56
2022/12/25 06:35:26;;;;;;;;;13.25;12.00;;;;;12.97;72.25;100659.66;5059839;28;45256;-56
2022/12/25 06:37:52;;;;;;;;;15.75;14.00;;;;;12.99;72.48;100674.53;5060339;28;45359;-56
2022/12/25 06:40:17;;;;;;;;;14.75;13.25;;;;;12.97;72.25;100671.06;5060064;28;45494;-55
2022/12/25 06:42:43;;;;;;;;;15.00;12.75;;;;;12.87;72.22;100655.47;5059794;28;46114;-56
2022/12/25 06:45:09;;;;;;;;;15.00;14.00;;;;;12.92;72.52;100661.53;5060016;28;45253;-56
2022/12/25 06:47:36;;;;;;;;;14.00;12.00;;;;;12.92;72.37;100662.41;5060154;28;45227;-56
2022/12/25 06:50:01;;;;;;;;;12.00;10.25;;;;;12.90;72.19;100648.38;5075645;28;45276;-56
2022/12/25 06:52:27;;;;;;;;;12.00;12.00;;;;;12.88;72.17;100649.31;5059409;28;46185;-55
2022/12/25 06:54:52;;;;;;;;;11.50;9.75;;;;;12.86;72.41;100652.00;5075400;28;45342;-55
2022/12/25 06:57:18;;;;;;;;;7.75;7.75;;;;;12.81;72.45;100646.81;5060346;28;45257;-54
2022/12/25 06:59:43;;;;;;;;;14.75;11.75;;;;;12.82;72.15;100660.91;5059813;28;45457;-55
2022/12/25 07:02:17;;;;;;;;;11.00;10.25;;;;;12.81;72.25;100661.78;5059607;28;45382;-55
2022/12/25 07:04:43;;;;;;;;;12.75;12.50;;;;;12.79;72.19;100666.22;5059755;28;45366;-54
2022/12/25 07:07:08;;;;;;;;;13.75;12.00;;;;;12.79;72.33;100668.88;5063362;28;45339;-56
2022/12/25 07:09:34;;;;;;;;;10.25;10.25;;;;;12.78;72.14;100669.75;5063517;28;45341;-55
2022/12/25 07:12:12;;;;;;;;;10.00;7.75;;;;;12.75;72.17;100685.69;5063316;28;45332;-55
2022/12/25 07:14:38;;;;;;;;;9.25;8.75;;;;;12.74;72.47;100686.56;5063259;28;45404;-55
2022/12/25 07:17:03;;;;;;;;;10.25;8.25;;;;;12.68;72.43;100677.91;5063418;28;45287;-54
2022/12/25 07:19:28;;;;;;;;;9.75;8.75;;;;;12.65;71.91;100667.44;5063203;28;45236;-55
2022/12/25 07:21:53;;;;;;;;;12.50;10.75;;;;;12.63;72.20;100668.41;5063044;28;46408;-55
2022/12/25 07:24:20;;;;;;;;;8.75;6.50;;;;;12.58;72.17;100657.94;5062941;28;45251;-55
2022/12/25 07:26:46;;;;;;;;;9.50;9.50;;;;;12.55;72.52;100652.72;5063056;28;45295;-55
2022/12/25 07:29:11;;;;;;;;;10.00;9.75;;;;;12.55;72.07;100622.88;5063050;28;45251;-55
2022/12/25 07:31:36;;;;;;;;;10.00;9.25;;;;;12.49;72.29;100615.97;5062969;28;45339;-56
2022/12/25 07:34:02;;;;;;;;;10.00;8.50;;;;;12.51;71.92;100604.53;5078695;28;45346;-55
2022/12/25 07:36:29;;;;;;;;;13.25;12.00;;;;;12.48;72.05;100596.66;5062900;28;45389;-55
2022/12/25 07:38:55;;;;;;;;;13.00;11.00;;;;;12.45;72.21;100599.41;5062890;28;45377;-55
2022/12/25 07:41:21;;;;;;;;;12.25;12.25;;;;;12.44;72.02;100597.66;5062501;28;46067;-55
2022/12/25 07:43:50;;;;;;;;;14.00;13.50;;;;;12.42;72.18;100598.59;5062634;28;45446;-55
2022/12/25 07:46:16;;;;;;;;;16.25;12.25;;;;;12.40;72.07;100589.84;5062974;27;45235;-55
2022/12/25 07:48:41;;;;;;;;;13.00;11.75;;;;;12.37;72.12;100584.69;5062766;28;45189;-56
2022/12/25 07:51:11;;;;;;;;;12.25;9.00;;;;;12.33;72.27;100586.50;5062400;28;45354;-56
2022/12/25 07:53:37;;;;;;;;;10.00;10.00;;;;;12.27;71.90;100579.59;5062534;28;45315;-55
2022/12/25 07:56:17;;;;;;;;;15.25;13.00;;;;;12.28;72.21;100598.94;5062547;28;45423;-55
2022/12/25 07:58:43;;;;;;;;;10.50;10.00;;;;;12.25;72.25;100601.63;5062462;28;45302;-56
2022/12/25 08:01:18;;;;;;;;;10.50;10.50;;;;;12.24;72.01;100602.53;5062433;28;45930;-55
2022/12/25 08:03:49;;;;;;;;;8.75;8.75;;;;;12.22;72.19;100613.09;5049042;28;45261;-55
2022/12/25 08:06:14;;;;;;;;;10.50;10.00;;;;;12.19;72.07;100629.84;5077764;27;45264;-55
2022/12/25 08:08:40;;;;;;;;;14.75;13.25;;;;;12.19;71.82;100634.25;5062342;28;45588;-55
2022/12/25 08:11:07;;;;;;;;;13.00;10.25;;;;;12.19;71.85;100639.53;5077700;28;46419;-54
2022/12/25 08:13:33;;;;;;;;;9.00;9.00;;;;;12.16;71.94;100640.47;5062290;28;45410;-54
2022/12/25 08:16:00;;;;;;;;;11.50;11.50;;;;;12.15;72.05;100637.84;5062346;28;45390;-55
2022/12/25 08:18:27;;;;;;;;;11.25;9.25;;;;;12.08;71.93;100641.53;5061786;28;45339;-55
2022/12/25 08:20:53;;;;;;;;;11.75;10.00;;;;;12.10;71.88;100631.81;5061912;28;45259;-55
2022/12/25 08:23:19;;;;;;;;;11.25;11.25;;;;;12.07;71.87;100619.56;5077624;28;45625;-55
2022/12/25 08:25:44;;;;;;;;;11.25;11.25;;;;;12.10;72.01;100635.34;5062127;28;45274;-53
2022/12/25 08:28:09;;;;;;;;;12.00;10.00;;;;;12.08;72.21;100638.91;5061930;28;45447;-54
2022/12/25 08:30:37;;;;;;;;;6.50;6.25;;;;;12.09;72.07;100640.59;5061896;28;46028;-54
2022/12/25 08:33:03;;;;;;;;;9.75;9.25;;;;;12.07;71.66;100640.66;5062086;28;45257;-55
2022/12/25 08:35:28;;;;;;;;;11.25;9.25;;;;;12.03;71.99;100623.19;5061843;28;45334;-55
2022/12/25 08:37:53;;;;;;;;;14.50;12.75;;;;;12.05;71.99;100642.47;5062090;28;45371;-55
2022/12/25 08:40:19;;;;;;;;;11.00;10.25;;;;;12.06;72.02;100627.53;5061849;28;45496;-55
2022/12/25 08:42:44;;;;;;;;;11.00;11.00;;;;;11.98;71.97;100618.00;5061761;28;45421;-55
2022/12/25 08:45:10;;;;;;;;;9.75;9.25;;;;;12.03;72.07;100616.13;5060834;28;45315;-54
2022/12/25 08:47:35;;;;;;;;;11.25;11.00;;;;;12.00;72.10;100612.75;5062012;28;45486;-55
2022/12/25 08:50:00;;;;;;;;;11.00;9.00;;;;;12.01;71.65;100604.78;5061696;28;46033;-55
2022/12/25 08:52:27;;;;;;;;;10.75;9.50;;;;;12.01;71.83;100610.06;5061250;28;45345;-55
2022/12/25 08:54:53;;;;;;;;;14.00;10.50;;;;;12.00;71.71;100624.13;5061637;28;45224;-55
2022/12/25 08:57:18;;;;;;;;;10.50;10.50;;;;;11.99;71.83;100622.38;5061571;28;45289;-55
2022/12/25 08:59:43;;;;;;;;;9.25;8.00;;;;;11.99;72.14;100606.59;5061616;28;45215;-55
2022/12/25 09:02:10;;;;;;;;;10.50;9.25;;;;;12.01;72.12;100604.78;5061614;28;45271;-58
2022/12/25 09:04:36;;;;;;;;;11.00;11.00;;;;;12.06;72.11;100614.34;5061514;28;45235;-55
2022/12/25 09:07:01;;;;;;;;;14.50;14.00;;;;;12.09;72.08;100598.47;5061305;28;45231;-55
2022/12/25 09:09:27;;;;;;;;;13.75;11.25;;;;;12.09;71.97;100598.47;5076950;28;47101;-55
2022/12/25 09:11:52;;;;;;;;;10.75;10.75;;;;;12.12;72.04;100617.69;5061408;28;45473;-55
2022/12/25 09:14:18;;;;;;;;;10.75;10.00;;;;;12.17;71.90;100629.00;5061511;28;45315;-55
2022/12/25 09:16:43;;;;;;;;;10.75;9.50;;;;;12.15;72.00;100638.72;5061593;28;45360;-55
2022/12/25 09:19:08;;;;;;;;;8.50;8.50;;;;;12.17;72.29;100642.16;5061316;28;46291;-55
2022/12/25 09:21:35;;;;;;;;;11.75;8.75;;;;;12.21;72.09;100647.38;5061071;28;45245;-55
2022/12/25 09:24:01;;;;;;;;;11.50;9.00;;;;;12.23;71.93;100659.63;5061179;28;45224;-55
2022/12/25 09:26:27;;;;;;;;;11.25;10.25;;;;;12.22;72.12;100671.06;5060941;28;45260;-54
2022/12/25 09:28:52;;;;;;;;;13.00;9.50;;;;;12.19;72.09;100650.06;5059778;28;46082;-55
2022/12/25 09:31:18;;;;;;;;;12.75;10.75;;;;;12.14;71.78;100657.22;5061221;28;45185;-55
2022/12/25 09:33:43;;;;;;;;;10.50;10.50;;;;;12.19;71.89;100660.59;5061142;28;45241;-56
2022/12/25 09:36:09;;;;;;;;;9.50;8.25;;;;;12.19;71.89;100656.19;5060969;28;45211;-56
2022/12/25 09:38:35;;;;;;;;;9.00;7.25;;;;;12.22;71.89;100664.94;5060874;28;46354;-55
2022/12/25 09:41:20;;;;;;;;;10.00;9.50;;;;;12.18;72.12;100637.78;5060772;28;45389;-56
2022/12/25 09:43:51;;;;;;;;;9.25;9.00;;;;;12.18;71.80;100636.00;5060916;28;45490;-55
2022/12/25 09:46:22;;;;;;;;;9.25;8.50;;;;;12.16;71.79;100640.47;5060861;28;45228;-55
2022/12/25 09:49:04;;;;;;;;;13.00;10.50;;;;;12.11;72.17;100641.44;5060827;28;45359;-55
2022/12/25 09:51:36;;;;;;;;;11.25;11.00;;;;;12.10;71.91;100631.81;5060325;28;46744;-56
2022/12/25 09:54:19;;;;;;;;;14.00;11.50;;;;;12.07;72.03;100624.00;5060856;28;45302;-56
2022/12/25 09:56:45;;;;;;;;;15.25;11.00;;;;;12.13;72.36;100629.13;5060415;28;45287;-56
2022/12/25 09:59:23;;;;;;;;;10.00;8.50;;;;;12.14;72.17;100629.09;5060420;28;46559;-56
2022/12/25 10:02:05;;;;;;;;;9.00;8.00;;;;;12.17;71.98;100641.31;5060408;28;45293;-56
2022/12/25 10:05:02;;;;;;;;;11.50;8.25;;;;;12.23;71.59;100648.22;5060300;28;45327;-56
2022/12/25 10:07:43;;;;;;;;;10.00;8.00;;;;;12.20;72.07;100641.28;5060289;28;45169;-53
2022/12/25 10:10:18;;;;;;;;;13.00;10.25;;;;;12.23;72.10;100657.00;5060538;28;45406;-55
2022/12/25 10:13:24;;;;;;;;;10.50;10.00;;;;;12.23;72.06;100633.28;5060168;28;45626;-55
2022/12/25 10:15:54;;;;;;;;;10.25;10.25;;;;;12.33;71.86;100633.94;5060495;28;45256;-54
2022/12/25 10:18:43;;;;;;;;;8.25;8.25;;;;;12.23;71.85;100632.44;5060655;28;45408;-54
2022/12/25 10:21:12;;;;;;;;;12.75;10.25;;;;;12.34;72.07;100633.03;5059781;28;46041;-55
2022/12/25 10:23:48;;;;;;;;;10.75;10.75;;;;;12.34;72.00;100618.09;5060128;28;45228;-55
2022/12/25 10:26:20;;;;;;;;;13.75;9.75;;;;;12.44;71.99;100625.75;5059909;28;45247;-56
2022/12/25 10:28:54;;;;;;;;;7.25;7.25;;;;;12.43;71.67;100598.56;5058861;28;45433;-56
2022/12/25 10:31:21;;;;;;;;;12.00;10.00;;;;;12.50;72.35;100612.44;5060165;28;46170;-56
2022/12/25 10:33:49;;;;;;;;;10.75;10.00;;;;;12.57;71.33;100614.03;5058902;28;45524;-55
2022/12/25 10:36:18;;;;;;;;;11.25;11.25;;;;;12.63;71.96;100623.56;5060089;28;45402;-56
2022/12/25 10:38:43;;;;;;;;;9.50;8.50;;;;;12.64;72.01;100638.47;5060009;28;45339;-56
2022/12/25 10:41:24;;;;;;;;;13.00;11.25;;;;;12.66;71.95;100634.03;5059422;28;45966;-56
2022/12/25 10:43:54;;;;;;;;;8.75;8.75;;;;;12.67;71.96;100628.72;5059892;28;45298;-56
2022/12/25 10:46:23;;;;;;;;;9.75;9.25;;;;;12.70;71.68;100626.91;5060196;28;45256;-56
2022/12/25 10:48:59;;;;;;;;;11.75;9.25;;;;;12.74;72.09;100625.94;5059858;28;45234;-56
2022/12/25 10:51:36;;;;;;;;;12.75;10.00;;;;;12.80;72.02;100629.31;5059483;28;45433;-57
2022/12/25 10:54:16;;;;;;;;;11.50;9.50;;;;;12.83;71.37;100628.34;5059994;28;45429;-56
2022/12/25 10:56:55;;;;;;;;;9.00;8.00;;;;;12.81;71.82;100616.97;5059817;28;45343;-56
2022/12/25 10:59:20;;;;;;;;;10.00;9.00;;;;;12.87;72.40;100595.72;5059939;28;45218;-56
2022/12/25 11:01:46;;;;;;;;;11.75;10.00;;;;;12.89;71.69;100583.34;5059507;28;45426;-57
2022/12/25 11:04:20;;;;;;;;;13.00;10.75;;;;;12.87;71.91;100587.81;5058261;28;45492;-56
2022/12/25 11:06:56;;;;;;;;;6.50;5.00;;;;;12.91;71.57;100591.22;5059548;28;45320;-56
2022/12/25 11:09:22;;;;;;;;;8.00;8.00;;;;;12.96;71.43;100592.81;5059314;28;45411;-56
2022/12/25 11:11:47;;;;;;;;;8.50;8.00;;;;;12.90;71.82;100600.91;5059443;28;46102;-56
2022/12/25 11:14:19;;;;;;;;;8.75;7.50;;;;;12.98;71.52;100593.66;5059599;28;45328;-57
2022/12/25 11:16:44;;;;;;;;;6.25;6.25;;;;;13.05;71.52;100590.88;5059782;28;46404;-57
2022/12/25 11:19:31;;;;;;;;;9.75;8.75;;;;;13.14;71.21;100603.78;5059456;28;45247;-57
2022/12/25 11:21:59;;;;;;;;;8.25;6.00;;;;;13.15;71.48;100594.97;5059258;28;47367;-57
2022/12/25 11:24:27;;;;;;;;;9.75;7.00;;;;;13.21;71.03;100597.44;5055292;28;45436;-57
2022/12/25 11:26:56;;;;;;;;;5.75;5.25;;;;;13.17;71.11;100598.44;5050191;28;45412;-56
2022/12/25 11:29:21;;;;;;;;;9.50;8.00;;;;;13.20;70.89;100614.19;5059340;28;45258;-56
2022/12/25 11:31:49;;;;;;;;;6.75;6.75;;;;;13.22;71.00;100614.13;5059118;28;45453;-57
2022/12/25 11:34:32;;;;;;;;;8.00;4.75;;;;;13.26;71.50;100624.56;5059309;28;45461;-57
2022/12/25 11:37:01;;;;;;;;;8.75;8.25;;;;;13.27;71.03;100621.03;5059089;28;45284;-56
2022/12/25 11:39:29;;;;;;;;;10.25;8.00;;;;;13.32;71.01;100623.56;5059484;28;45332;-56
2022/12/25 11:41:58;;;;;;;;;7.00;7.00;;;;;13.35;71.05;100619.97;5058750;28;46309;-57
2022/12/25 11:44:41;;;;;;;;;7.25;6.50;;;;;13.44;70.50;100622.38;5059225;28;45460;-56
2022/12/25 11:47:17;;;;;;;;;9.75;7.75;;;;;13.46;71.05;100626.69;5059155;28;45414;-56
2022/12/25 11:49:58;;;;;;;;;6.00;6.00;;;;;13.46;70.51;100629.34;5059225;28;45323;-55
2022/12/25 11:52:30;;;;;;;;;10.00;10.00;;;;;13.55;70.35;100646.69;5059562;28;45266;-56
2022/12/25 11:55:06;;;;;;;;;8.50;8.25;;;;;13.59;70.54;100639.56;5077923;28;45353;-56
2022/12/25 11:57:34;;;;;;;;;9.00;9.00;;;;;13.59;70.06;100635.13;5062390;28;45345;-56
2022/12/25 12:00:05;;;;;;;;;11.00;9.50;;;;;13.59;70.19;100634.28;5062463;28;45357;-55
2022/12/25 12:02:49;;;;;;;;;11.75;8.00;;;;;13.58;70.58;100633.38;5062121;28;45324;-55
2022/12/25 12:05:27;;;;;;;;;9.00;9.00;;;;;13.61;70.63;100632.44;5062153;28;45421;-56
2022/12/25 12:07:59;;;;;;;;;7.00;7.00;;;;;13.60;70.17;100625.44;5062431;28;45399;-56
2022/12/25 12:10:40;;;;;;;;;9.25;9.25;;;;;13.58;70.34;100614.91;5062505;28;45461;-56
2022/12/25 12:13:25;;;;;;;;;16.25;12.00;;;;;13.64;70.00;100627.94;5062063;28;46371;-56
2022/12/25 12:15:51;;;;;;;;;11.75;9.25;;;;;13.67;70.54;100618.22;5062146;28;45260;-56
2022/12/25 12:18:25;;;;;;;;;12.75;10.00;;;;;13.65;70.54;100603.28;5062449;28;45229;-55
2022/12/25 12:20:57;;;;;;;;;12.50;9.25;;;;;13.62;70.25;100586.66;5061857;28;45495;-56
2022/12/25 12:23:22;;;;;;;;;11.50;10.50;;;;;13.64;70.51;100577.78;5077544;28;47002;-57
2022/12/25 12:25:49;;;;;;;;;13.50;10.75;;;;;13.69;70.03;100579.44;5061742;28;45271;-56
2022/12/25 12:28:33;;;;;;;;;15.50;12.75;;;;;13.71;69.81;100572.31;5062071;28;45331;-57
2022/12/25 12:31:02;;;;;;;;;10.75;10.50;;;;;13.66;70.56;100559.25;5061999;28;45388;-55
2022/12/25 12:33:35;;;;;;;;;10.00;10.00;;;;;13.65;70.59;100560.16;5061881;28;46265;-57
2022/12/25 12:36:03;;;;;;;;;10.00;8.50;;;;;13.67;69.96;100570.69;5061528;28;45273;-55
2022/12/25 12:38:30;;;;;;;;;10.75;10.75;;;;;13.73;70.28;100560.78;5061962;28;45262;-56
2022/12/25 12:41:02;;;;;;;;;9.25;7.50;;;;;13.75;70.07;100560.75;5061621;28;45505;-56
2022/12/25 12:43:36;;;;;;;;;11.00;8.25;;;;;13.73;69.90;100562.56;5061533;28;45393;-56
2022/12/25 12:46:24;;;;;;;;;11.25;9.00;;;;;13.74;70.34;100582.78;5061881;28;45399;-56
2022/12/25 12:48:53;;;;;;;;;12.00;9.50;;;;;13.73;69.96;100576.63;5061697;28;45256;-55
2022/12/25 12:51:34;;;;;;;;;11.25;9.50;;;;;13.75;70.04;100571.31;5061393;28;45204;-57
2022/12/25 12:54:22;;;;;;;;;10.00;9.75;;;;;13.81;69.84;100574.63;5077286;28;47029;-56
2022/12/25 12:57:28;;;;;;;;;9.50;8.50;;;;;13.79;69.75;100562.38;5077121;28;45335;-56
2022/12/25 12:59:56;;;;;;;;;11.00;9.00;;;;;13.80;69.87;100572.06;5061618;28;45444;-56
2022/12/25 13:02:31;;;;;;;;;9.25;9.25;;;;;13.85;70.11;100566.59;5061534;28;45381;-56
2022/12/25 13:05:14;;;;;;;;;8.00;7.50;;;;;13.79;70.36;100560.59;5061157;28;45228;-57
2022/12/25 13:08:18;;;;;;;;;7.75;7.50;;;;;13.81;70.00;100565.84;5061539;28;45419;-55